sensor_id;sensor_type;location;lat;lon;timestamp;P1;durP1;ratioP1;P2;durP2;ratioP2
4636;SDS011;2331;48.806;9.140;2022-12-10T00:00:33;39.90;;;23.73;;
4636;SDS011;2331;48.806;9.140;2022-12-10T00:03:01;41.08;;;23.35;;
4636;SDS011;2331;48.806;9.140;2022-12-10T00:05:29;38.95;;;23.38;;
4636;SDS011;2331;48.806;9.140;2022-12-10T00:07:58;36.17;;;20.60;;
4636;SDS011;2331;48.806;9.140;2022-12-10T00:10:25;42.92;;;23.55;;
4636;SDS011;2331;48.806;9.140;2022-12-10T00:12:52;37.03;;;22.05;;
4636;SDS011;2331;48.806;9.140;2022-12-10T00:15:18;40.65;;;23.05;;
4636;SDS011;2331;48.806;9.140;2022-12-10T00:17:45;36.85;;;22.73;;
4636;SDS011;2331;48.806;9.140;2022-12-10T00:20:12;40.20;;;23.08;;
4636;SDS011;2331;48.806;9.140;2022-12-10T00:22:40;37.17;;;22.83;;
4636;SDS011;2331;48.806;9.140;2022-12-10T00:25:07;39.92;;;23.08;;
4636;SDS011;2331;48.806;9.140;2022-12-10T00:27:34;34.22;;;21.25;;
4636;SDS011;2331;48.806;9.140;2022-12-10T00:30:01;35.30;;;21.23;;
4636;SDS011;2331;48.806;9.140;2022-12-10T00:32:28;42.97;;;24.33;;
4636;SDS011;2331;48.806;9.140;2022-12-10T00:34:54;38.58;;;22.58;;
4636;SDS011;2331;48.806;9.140;2022-12-10T00:37:21;40.35;;;22.73;;
4636;SDS011;2331;48.806;9.140;2022-12-10T00:39:49;42.97;;;23.48;;
4636;SDS011;2331;48.806;9.140;2022-12-10T00:42:16;41.72;;;22.83;;
4636;SDS011;2331;48.806;9.140;2022-12-10T00:44:43;41.97;;;22.60;;
4636;SDS011;2331;48.806;9.140;2022-12-10T00:47:09;40.03;;;23.35;;
4636;SDS011;2331;48.806;9.140;2022-12-10T00:49:36;39.25;;;23.63;;
4636;SDS011;2331;48.806;9.140;2022-12-10T00:52:03;43.22;;;23.33;;
4636;SDS011;2331;48.806;9.140;2022-12-10T00:54:30;37.60;;;23.00;;
4636;SDS011;2331;48.806;9.140;2022-12-10T00:56:58;41.65;;;23.38;;
4636;SDS011;2331;48.806;9.140;2022-12-10T00:59:24;37.17;;;21.85;;
4636;SDS011;2331;48.806;9.140;2022-12-10T01:01:51;42.88;;;23.23;;
4636;SDS011;2331;48.806;9.140;2022-12-10T01:04:18;38.17;;;21.23;;
4636;SDS011;2331;48.806;9.140;2022-12-10T01:06:45;42.13;;;23.38;;
4636;SDS011;2331;48.806;9.140;2022-12-10T01:09:14;38.13;;;21.40;;
4636;SDS011;2331;48.806;9.140;2022-12-10T01:11:43;40.08;;;22.77;;
4636;SDS011;2331;48.806;9.140;2022-12-10T01:14:13;38.08;;;21.63;;
4636;SDS011;2331;48.806;9.140;2022-12-10T01:16:43;39.42;;;22.55;;
4636;SDS011;2331;48.806;9.140;2022-12-10T01:19:10;39.17;;;22.30;;
4636;SDS011;2331;48.806;9.140;2022-12-10T01:21:37;36.42;;;21.48;;
4636;SDS011;2331;48.806;9.140;2022-12-10T01:24:04;40.72;;;23.65;;
4636;SDS011;2331;48.806;9.140;2022-12-10T01:26:32;42.10;;;23.48;;
4636;SDS011;2331;48.806;9.140;2022-12-10T01:29:00;41.30;;;23.05;;
4636;SDS011;2331;48.806;9.140;2022-12-10T01:31:30;36.80;;;21.70;;
4636;SDS011;2331;48.806;9.140;2022-12-10T01:33:58;39.78;;;21.27;;
4636;SDS011;2331;48.806;9.140;2022-12-10T01:36:26;40.30;;;23.05;;
4636;SDS011;2331;48.806;9.140;2022-12-10T01:38:54;40.10;;;23.00;;
4636;SDS011;2331;48.806;9.140;2022-12-10T01:41:21;38.80;;;21.58;;
4636;SDS011;2331;48.806;9.140;2022-12-10T01:43:51;39.33;;;22.08;;
4636;SDS011;2331;48.806;9.140;2022-12-10T01:46:20;36.40;;;21.60;;
4636;SDS011;2331;48.806;9.140;2022-12-10T01:48:53;36.92;;;21.33;;
4636;SDS011;2331;48.806;9.140;2022-12-10T01:51:21;38.67;;;22.48;;
4636;SDS011;2331;48.806;9.140;2022-12-10T01:53:50;40.28;;;23.05;;
4636;SDS011;2331;48.806;9.140;2022-12-10T01:56:17;39.40;;;21.92;;
4636;SDS011;2331;48.806;9.140;2022-12-10T01:58:45;41.30;;;22.15;;
4636;SDS011;2331;48.806;9.140;2022-12-10T02:01:14;39.00;;;23.17;;
4636;SDS011;2331;48.806;9.140;2022-12-10T02:03:51;37.08;;;21.80;;
4636;SDS011;2331;48.806;9.140;2022-12-10T02:06:25;40.60;;;22.20;;
4636;SDS011;2331;48.806;9.140;2022-12-10T02:09:01;32.25;;;19.40;;
4636;SDS011;2331;48.806;9.140;2022-12-10T02:11:33;42.42;;;22.25;;
4636;SDS011;2331;48.806;9.140;2022-12-10T02:14:08;37.70;;;21.70;;
4636;SDS011;2331;48.806;9.140;2022-12-10T02:16:41;34.88;;;19.95;;
4636;SDS011;2331;48.806;9.140;2022-12-10T02:19:15;43.83;;;23.05;;
4636;SDS011;2331;48.806;9.140;2022-12-10T02:21:48;42.85;;;22.23;;
4636;SDS011;2331;48.806;9.140;2022-12-10T02:24:18;34.13;;;20.80;;
4636;SDS011;2331;48.806;9.140;2022-12-10T02:26:49;36.00;;;22.20;;
4636;SDS011;2331;48.806;9.140;2022-12-10T02:29:24;40.45;;;22.17;;
4636;SDS011;2331;48.806;9.140;2022-12-10T02:31:53;39.90;;;22.75;;
4636;SDS011;2331;48.806;9.140;2022-12-10T02:34:23;36.92;;;21.20;;
4636;SDS011;2331;48.806;9.140;2022-12-10T02:36:53;39.28;;;22.73;;
4636;SDS011;2331;48.806;9.140;2022-12-10T02:39:23;40.25;;;22.13;;
4636;SDS011;2331;48.806;9.140;2022-12-10T02:41:56;38.95;;;20.90;;
4636;SDS011;2331;48.806;9.140;2022-12-10T02:44:27;35.05;;;21.60;;
4636;SDS011;2331;48.806;9.140;2022-12-10T02:46:56;36.20;;;21.65;;
4636;SDS011;2331;48.806;9.140;2022-12-10T02:49:24;39.17;;;20.55;;
4636;SDS011;2331;48.806;9.140;2022-12-10T02:51:52;33.33;;;20.70;;
4636;SDS011;2331;48.806;9.140;2022-12-10T02:54:36;35.22;;;20.27;;
4636;SDS011;2331;48.806;9.140;2022-12-10T02:57:11;35.65;;;21.55;;
4636;SDS011;2331;48.806;9.140;2022-12-10T03:00:08;35.40;;;20.42;;
4636;SDS011;2331;48.806;9.140;2022-12-10T03:02:44;38.20;;;20.50;;
4636;SDS011;2331;48.806;9.140;2022-12-10T03:08:51;35.90;;;20.70;;
4636;SDS011;2331;48.806;9.140;2022-12-10T03:11:24;38.00;;;22.02;;
4636;SDS011;2331;48.806;9.140;2022-12-10T03:13:53;37.25;;;21.52;;
4636;SDS011;2331;48.806;9.140;2022-12-10T03:16:28;35.13;;;20.23;;
4636;SDS011;2331;48.806;9.140;2022-12-10T03:19:01;37.10;;;21.35;;
4636;SDS011;2331;48.806;9.140;2022-12-10T03:21:30;37.08;;;22.10;;
4636;SDS011;2331;48.806;9.140;2022-12-10T03:24:01;41.95;;;20.45;;
4636;SDS011;2331;48.806;9.140;2022-12-10T03:26:30;33.58;;;20.58;;
4636;SDS011;2331;48.806;9.140;2022-12-10T03:28:59;34.75;;;19.95;;
4636;SDS011;2331;48.806;9.140;2022-12-10T03:31:32;36.22;;;20.45;;
4636;SDS011;2331;48.806;9.140;2022-12-10T03:34:01;33.13;;;19.88;;
4636;SDS011;2331;48.806;9.140;2022-12-10T03:36:28;38.38;;;20.98;;
4636;SDS011;2331;48.806;9.140;2022-12-10T03:38:57;34.05;;;20.23;;
4636;SDS011;2331;48.806;9.140;2022-12-10T03:41:24;36.58;;;20.65;;
4636;SDS011;2331;48.806;9.140;2022-12-10T03:43:51;38.75;;;22.20;;
4636;SDS011;2331;48.806;9.140;2022-12-10T03:46:19;34.85;;;20.55;;
4636;SDS011;2331;48.806;9.140;2022-12-10T03:48:48;37.95;;;21.20;;
4636;SDS011;2331;48.806;9.140;2022-12-10T03:51:15;34.75;;;20.58;;
4636;SDS011;2331;48.806;9.140;2022-12-10T03:53:42;35.03;;;20.50;;
4636;SDS011;2331;48.806;9.140;2022-12-10T03:56:09;35.88;;;21.58;;
4636;SDS011;2331;48.806;9.140;2022-12-10T03:58:36;33.20;;;18.80;;
4636;SDS011;2331;48.806;9.140;2022-12-10T04:01:02;40.58;;;21.70;;
4636;SDS011;2331;48.806;9.140;2022-12-10T04:03:29;33.38;;;20.27;;
4636;SDS011;2331;48.806;9.140;2022-12-10T04:06:01;31.02;;;18.98;;
4636;SDS011;2331;48.806;9.140;2022-12-10T04:08:28;36.60;;;21.08;;
4636;SDS011;2331;48.806;9.140;2022-12-10T04:11:00;36.72;;;22.67;;
4636;SDS011;2331;48.806;9.140;2022-12-10T04:13:30;34.90;;;19.75;;
4636;SDS011;2331;48.806;9.140;2022-12-10T04:16:15;42.85;;;22.67;;
4636;SDS011;2331;48.806;9.140;2022-12-10T04:18:54;38.47;;;21.85;;
4636;SDS011;2331;48.806;9.140;2022-12-10T04:21:24;45.72;;;22.35;;
4636;SDS011;2331;48.806;9.140;2022-12-10T04:24:09;37.75;;;21.80;;
4636;SDS011;2331;48.806;9.140;2022-12-10T04:26:54;38.97;;;20.20;;
4636;SDS011;2331;48.806;9.140;2022-12-10T04:29:22;35.72;;;21.38;;
4636;SDS011;2331;48.806;9.140;2022-12-10T04:31:50;38.13;;;21.15;;
4636;SDS011;2331;48.806;9.140;2022-12-10T04:34:17;36.30;;;21.33;;
4636;SDS011;2331;48.806;9.140;2022-12-10T04:36:46;38.55;;;21.90;;
4636;SDS011;2331;48.806;9.140;2022-12-10T04:39:13;37.75;;;21.92;;
4636;SDS011;2331;48.806;9.140;2022-12-10T04:41:41;32.35;;;20.13;;
4636;SDS011;2331;48.806;9.140;2022-12-10T04:44:09;34.13;;;19.75;;
4636;SDS011;2331;48.806;9.140;2022-12-10T04:46:36;36.60;;;21.38;;
4636;SDS011;2331;48.806;9.140;2022-12-10T04:49:03;41.70;;;22.17;;
4636;SDS011;2331;48.806;9.140;2022-12-10T04:51:31;41.85;;;22.50;;
4636;SDS011;2331;48.806;9.140;2022-12-10T04:53:59;44.80;;;24.35;;
4636;SDS011;2331;48.806;9.140;2022-12-10T04:56:26;37.45;;;21.08;;
4636;SDS011;2331;48.806;9.140;2022-12-10T04:58:54;42.13;;;23.90;;
4636;SDS011;2331;48.806;9.140;2022-12-10T05:01:21;37.92;;;21.42;;
4636;SDS011;2331;48.806;9.140;2022-12-10T05:03:48;34.83;;;20.95;;
4636;SDS011;2331;48.806;9.140;2022-12-10T05:06:15;34.60;;;20.98;;
4636;SDS011;2331;48.806;9.140;2022-12-10T05:08:43;41.50;;;23.23;;
4636;SDS011;2331;48.806;9.140;2022-12-10T05:11:12;39.47;;;22.88;;
4636;SDS011;2331;48.806;9.140;2022-12-10T05:13:40;41.33;;;21.30;;
4636;SDS011;2331;48.806;9.140;2022-12-10T05:16:09;38.67;;;21.80;;
4636;SDS011;2331;48.806;9.140;2022-12-10T05:18:38;39.90;;;23.42;;
4636;SDS011;2331;48.806;9.140;2022-12-10T05:21:06;38.97;;;22.67;;
4636;SDS011;2331;48.806;9.140;2022-12-10T05:23:35;37.33;;;22.35;;
4636;SDS011;2331;48.806;9.140;2022-12-10T05:26:02;39.13;;;21.88;;
4636;SDS011;2331;48.806;9.140;2022-12-10T05:28:33;38.00;;;22.42;;
4636;SDS011;2331;48.806;9.140;2022-12-10T05:31:01;38.15;;;21.73;;
4636;SDS011;2331;48.806;9.140;2022-12-10T05:33:28;38.75;;;21.85;;
4636;SDS011;2331;48.806;9.140;2022-12-10T05:35:56;33.78;;;20.40;;
4636;SDS011;2331;48.806;9.140;2022-12-10T05:38:24;39.35;;;23.15;;
4636;SDS011;2331;48.806;9.140;2022-12-10T05:40:52;38.25;;;22.73;;
4636;SDS011;2331;48.806;9.140;2022-12-10T05:43:19;37.58;;;22.55;;
4636;SDS011;2331;48.806;9.140;2022-12-10T05:45:48;39.42;;;22.15;;
4636;SDS011;2331;48.806;9.140;2022-12-10T05:48:14;38.70;;;22.60;;
4636;SDS011;2331;48.806;9.140;2022-12-10T05:50:42;39.53;;;22.05;;
4636;SDS011;2331;48.806;9.140;2022-12-10T05:53:09;38.47;;;22.00;;
4636;SDS011;2331;48.806;9.140;2022-12-10T05:55:38;35.72;;;20.52;;
4636;SDS011;2331;48.806;9.140;2022-12-10T05:58:05;37.92;;;21.88;;
4636;SDS011;2331;48.806;9.140;2022-12-10T06:00:32;39.88;;;22.20;;
4636;SDS011;2331;48.806;9.140;2022-12-10T06:03:00;36.95;;;21.70;;
4636;SDS011;2331;48.806;9.140;2022-12-10T06:05:27;36.70;;;21.10;;
4636;SDS011;2331;48.806;9.140;2022-12-10T06:07:54;37.80;;;22.00;;
4636;SDS011;2331;48.806;9.140;2022-12-10T06:10:20;35.60;;;21.05;;
4636;SDS011;2331;48.806;9.140;2022-12-10T06:12:47;35.38;;;20.27;;
4636;SDS011;2331;48.806;9.140;2022-12-10T06:15:14;35.65;;;20.80;;
4636;SDS011;2331;48.806;9.140;2022-12-10T06:17:40;41.17;;;22.45;;
4636;SDS011;2331;48.806;9.140;2022-12-10T06:20:09;37.58;;;22.20;;
4636;SDS011;2331;48.806;9.140;2022-12-10T06:22:37;36.55;;;20.45;;
4636;SDS011;2331;48.806;9.140;2022-12-10T06:25:04;35.85;;;20.50;;
4636;SDS011;2331;48.806;9.140;2022-12-10T06:27:32;38.22;;;21.77;;
4636;SDS011;2331;48.806;9.140;2022-12-10T06:29:58;38.60;;;22.77;;
4636;SDS011;2331;48.806;9.140;2022-12-10T06:32:25;37.28;;;20.90;;
4636;SDS011;2331;48.806;9.140;2022-12-10T06:34:52;40.05;;;23.05;;
4636;SDS011;2331;48.806;9.140;2022-12-10T06:37:20;36.22;;;21.30;;
4636;SDS011;2331;48.806;9.140;2022-12-10T06:39:49;38.08;;;21.48;;
4636;SDS011;2331;48.806;9.140;2022-12-10T06:42:16;40.67;;;23.45;;
4636;SDS011;2331;48.806;9.140;2022-12-10T06:44:43;37.28;;;21.15;;
4636;SDS011;2331;48.806;9.140;2022-12-10T06:47:10;36.80;;;21.40;;
4636;SDS011;2331;48.806;9.140;2022-12-10T06:49:37;38.03;;;20.80;;
4636;SDS011;2331;48.806;9.140;2022-12-10T06:52:03;38.08;;;21.88;;
4636;SDS011;2331;48.806;9.140;2022-12-10T06:54:32;35.88;;;21.55;;
4636;SDS011;2331;48.806;9.140;2022-12-10T06:56:59;38.83;;;22.33;;
4636;SDS011;2331;48.806;9.140;2022-12-10T06:59:26;36.47;;;21.45;;
4636;SDS011;2331;48.806;9.140;2022-12-10T07:01:53;37.30;;;21.23;;
4636;SDS011;2331;48.806;9.140;2022-12-10T07:04:19;38.85;;;21.05;;
4636;SDS011;2331;48.806;9.140;2022-12-10T07:06:46;35.13;;;20.73;;
4636;SDS011;2331;48.806;9.140;2022-12-10T07:09:13;36.42;;;21.40;;
4636;SDS011;2331;48.806;9.140;2022-12-10T07:11:41;40.72;;;23.10;;
4636;SDS011;2331;48.806;9.140;2022-12-10T07:14:09;36.85;;;21.95;;
4636;SDS011;2331;48.806;9.140;2022-12-10T07:16:39;39.58;;;23.13;;
4636;SDS011;2331;48.806;9.140;2022-12-10T07:19:08;39.17;;;21.73;;
4636;SDS011;2331;48.806;9.140;2022-12-10T07:21:37;39.88;;;20.85;;
4636;SDS011;2331;48.806;9.140;2022-12-10T07:24:07;41.55;;;21.90;;
4636;SDS011;2331;48.806;9.140;2022-12-10T07:26:38;39.10;;;21.35;;
4636;SDS011;2331;48.806;9.140;2022-12-10T07:29:07;40.22;;;22.58;;
4636;SDS011;2331;48.806;9.140;2022-12-10T07:31:38;36.47;;;21.60;;
4636;SDS011;2331;48.806;9.140;2022-12-10T07:34:05;37.63;;;22.15;;
4636;SDS011;2331;48.806;9.140;2022-12-10T07:36:32;41.63;;;24.02;;
4636;SDS011;2331;48.806;9.140;2022-12-10T07:38:58;34.38;;;20.25;;
4636;SDS011;2331;48.806;9.140;2022-12-10T07:41:25;42.22;;;23.92;;
4636;SDS011;2331;48.806;9.140;2022-12-10T07:43:52;41.28;;;22.00;;
4636;SDS011;2331;48.806;9.140;2022-12-10T07:46:21;40.63;;;22.60;;
4636;SDS011;2331;48.806;9.140;2022-12-10T07:48:50;36.85;;;22.00;;
4636;SDS011;2331;48.806;9.140;2022-12-10T07:51:18;38.38;;;23.45;;
4636;SDS011;2331;48.806;9.140;2022-12-10T07:53:46;43.35;;;23.10;;
4636;SDS011;2331;48.806;9.140;2022-12-10T07:56:14;39.55;;;21.90;;
4636;SDS011;2331;48.806;9.140;2022-12-10T07:58:40;41.17;;;23.60;;
4636;SDS011;2331;48.806;9.140;2022-12-10T08:01:08;41.00;;;22.55;;
4636;SDS011;2331;48.806;9.140;2022-12-10T08:03:38;41.35;;;22.30;;
4636;SDS011;2331;48.806;9.140;2022-12-10T08:06:06;39.65;;;22.48;;
4636;SDS011;2331;48.806;9.140;2022-12-10T08:08:35;40.97;;;21.98;;
4636;SDS011;2331;48.806;9.140;2022-12-10T08:11:03;34.97;;;22.10;;
4636;SDS011;2331;48.806;9.140;2022-12-10T08:13:31;41.28;;;21.60;;
4636;SDS011;2331;48.806;9.140;2022-12-10T08:16:00;39.42;;;21.80;;
4636;SDS011;2331;48.806;9.140;2022-12-10T08:18:28;37.10;;;22.00;;
4636;SDS011;2331;48.806;9.140;2022-12-10T08:20:56;39.03;;;22.15;;
4636;SDS011;2331;48.806;9.140;2022-12-10T08:23:23;42.65;;;23.70;;
4636;SDS011;2331;48.806;9.140;2022-12-10T08:25:50;41.67;;;22.80;;
4636;SDS011;2331;48.806;9.140;2022-12-10T08:28:17;33.00;;;20.63;;
4636;SDS011;2331;48.806;9.140;2022-12-10T08:30:45;37.97;;;22.40;;
4636;SDS011;2331;48.806;9.140;2022-12-10T08:33:12;38.80;;;22.67;;
4636;SDS011;2331;48.806;9.140;2022-12-10T08:35:39;41.55;;;23.50;;
4636;SDS011;2331;48.806;9.140;2022-12-10T08:38:07;37.63;;;21.35;;
4636;SDS011;2331;48.806;9.140;2022-12-10T08:40:38;39.03;;;23.00;;
4636;SDS011;2331;48.806;9.140;2022-12-10T08:43:05;40.65;;;22.60;;
4636;SDS011;2331;48.806;9.140;2022-12-10T08:45:32;43.13;;;23.40;;
4636;SDS011;2331;48.806;9.140;2022-12-10T08:47:59;44.67;;;23.77;;
4636;SDS011;2331;48.806;9.140;2022-12-10T08:50:26;44.40;;;22.73;;
4636;SDS011;2331;48.806;9.140;2022-12-10T08:52:53;38.97;;;21.85;;
4636;SDS011;2331;48.806;9.140;2022-12-10T08:55:21;37.95;;;23.00;;
4636;SDS011;2331;48.806;9.140;2022-12-10T08:57:48;41.30;;;23.02;;
4636;SDS011;2331;48.806;9.140;2022-12-10T09:00:14;39.38;;;22.80;;
4636;SDS011;2331;48.806;9.140;2022-12-10T09:02:43;40.00;;;24.88;;
4636;SDS011;2331;48.806;9.140;2022-12-10T09:05:10;39.20;;;22.15;;
4636;SDS011;2331;48.806;9.140;2022-12-10T09:07:37;38.17;;;21.70;;
4636;SDS011;2331;48.806;9.140;2022-12-10T09:10:04;41.38;;;23.27;;
4636;SDS011;2331;48.806;9.140;2022-12-10T09:12:33;39.75;;;22.83;;
4636;SDS011;2331;48.806;9.140;2022-12-10T09:15:00;41.67;;;22.30;;
4636;SDS011;2331;48.806;9.140;2022-12-10T09:17:27;36.55;;;21.95;;
4636;SDS011;2331;48.806;9.140;2022-12-10T09:19:54;36.40;;;21.35;;
4636;SDS011;2331;48.806;9.140;2022-12-10T09:22:20;36.47;;;20.67;;
4636;SDS011;2331;48.806;9.140;2022-12-10T09:24:47;35.92;;;21.25;;
4636;SDS011;2331;48.806;9.140;2022-12-10T09:27:14;36.55;;;21.23;;
4636;SDS011;2331;48.806;9.140;2022-12-10T09:29:42;38.28;;;20.88;;
4636;SDS011;2331;48.806;9.140;2022-12-10T09:32:09;35.25;;;21.27;;
4636;SDS011;2331;48.806;9.140;2022-12-10T09:34:36;37.75;;;21.10;;
4636;SDS011;2331;48.806;9.140;2022-12-10T09:37:02;37.42;;;21.48;;
4636;SDS011;2331;48.806;9.140;2022-12-10T09:39:29;34.65;;;19.45;;
4636;SDS011;2331;48.806;9.140;2022-12-10T09:41:59;37.47;;;21.45;;
4636;SDS011;2331;48.806;9.140;2022-12-10T09:44:41;38.45;;;22.38;;
4636;SDS011;2331;48.806;9.140;2022-12-10T09:47:16;37.65;;;21.15;;
4636;SDS011;2331;48.806;9.140;2022-12-10T09:49:47;39.90;;;22.13;;
4636;SDS011;2331;48.806;9.140;2022-12-10T09:52:20;38.10;;;21.75;;
4636;SDS011;2331;48.806;9.140;2022-12-10T09:54:49;35.38;;;20.88;;
4636;SDS011;2331;48.806;9.140;2022-12-10T09:57:21;39.75;;;22.58;;
4636;SDS011;2331;48.806;9.140;2022-12-10T09:59:53;33.78;;;20.63;;
4636;SDS011;2331;48.806;9.140;2022-12-10T10:02:22;39.22;;;21.08;;
4636;SDS011;2331;48.806;9.140;2022-12-10T10:04:53;35.17;;;20.27;;
4636;SDS011;2331;48.806;9.140;2022-12-10T10:07:24;41.22;;;22.45;;
4636;SDS011;2331;48.806;9.140;2022-12-10T10:09:55;40.63;;;21.70;;
4636;SDS011;2331;48.806;9.140;2022-12-10T10:12:25;37.35;;;22.30;;
4636;SDS011;2331;48.806;9.140;2022-12-10T10:14:55;36.42;;;21.10;;
4636;SDS011;2331;48.806;9.140;2022-12-10T10:17:23;36.97;;;21.40;;
4636;SDS011;2331;48.806;9.140;2022-12-10T10:19:55;40.47;;;21.90;;
4636;SDS011;2331;48.806;9.140;2022-12-10T10:22:21;34.70;;;20.65;;
4636;SDS011;2331;48.806;9.140;2022-12-10T10:24:48;37.33;;;20.85;;
4636;SDS011;2331;48.806;9.140;2022-12-10T10:27:16;34.35;;;20.63;;
4636;SDS011;2331;48.806;9.140;2022-12-10T10:29:45;36.55;;;20.58;;
4636;SDS011;2331;48.806;9.140;2022-12-10T10:32:17;37.80;;;21.60;;
4636;SDS011;2331;48.806;9.140;2022-12-10T10:34:46;35.47;;;19.92;;
4636;SDS011;2331;48.806;9.140;2022-12-10T10:37:19;35.03;;;21.23;;
4636;SDS011;2331;48.806;9.140;2022-12-10T10:39:47;42.03;;;22.70;;
4636;SDS011;2331;48.806;9.140;2022-12-10T10:42:21;36.15;;;21.38;;
4636;SDS011;2331;48.806;9.140;2022-12-10T10:44:53;37.25;;;20.25;;
4636;SDS011;2331;48.806;9.140;2022-12-10T10:47:25;34.15;;;20.75;;
4636;SDS011;2331;48.806;9.140;2022-12-10T10:49:53;39.20;;;20.75;;
4636;SDS011;2331;48.806;9.140;2022-12-10T10:52:20;36.40;;;21.00;;
4636;SDS011;2331;48.806;9.140;2022-12-10T10:54:48;34.35;;;20.10;;
4636;SDS011;2331;48.806;9.140;2022-12-10T10:57:15;33.67;;;19.48;;
4636;SDS011;2331;48.806;9.140;2022-12-10T10:59:48;31.63;;;19.38;;
4636;SDS011;2331;48.806;9.140;2022-12-10T11:02:18;30.77;;;18.77;;
4636;SDS011;2331;48.806;9.140;2022-12-10T11:04:50;31.42;;;18.90;;
4636;SDS011;2331;48.806;9.140;2022-12-10T11:07:20;32.80;;;19.60;;
4636;SDS011;2331;48.806;9.140;2022-12-10T11:09:51;31.88;;;18.98;;
4636;SDS011;2331;48.806;9.140;2022-12-10T11:12:29;31.42;;;18.48;;
4636;SDS011;2331;48.806;9.140;2022-12-10T11:15:01;29.30;;;17.58;;
4636;SDS011;2331;48.806;9.140;2022-12-10T11:17:40;32.47;;;18.75;;
4636;SDS011;2331;48.806;9.140;2022-12-10T11:20:17;27.83;;;17.95;;
4636;SDS011;2331;48.806;9.140;2022-12-10T11:22:48;26.75;;;17.67;;
4636;SDS011;2331;48.806;9.140;2022-12-10T11:25:16;31.80;;;18.50;;
4636;SDS011;2331;48.806;9.140;2022-12-10T11:27:47;34.30;;;19.80;;
4636;SDS011;2331;48.806;9.140;2022-12-10T11:30:22;30.55;;;17.33;;
4636;SDS011;2331;48.806;9.140;2022-12-10T11:33:00;30.50;;;17.55;;
4636;SDS011;2331;48.806;9.140;2022-12-10T11:35:49;33.15;;;17.23;;
4636;SDS011;2331;48.806;9.140;2022-12-10T11:38:24;26.52;;;17.10;;
4636;SDS011;2331;48.806;9.140;2022-12-10T11:40:57;30.80;;;17.33;;
4636;SDS011;2331;48.806;9.140;2022-12-10T11:43:34;34.03;;;19.02;;
4636;SDS011;2331;48.806;9.140;2022-12-10T11:46:13;32.80;;;18.20;;
4636;SDS011;2331;48.806;9.140;2022-12-10T11:48:55;33.72;;;19.58;;
4636;SDS011;2331;48.806;9.140;2022-12-10T11:51:32;29.60;;;17.45;;
4636;SDS011;2331;48.806;9.140;2022-12-10T11:54:12;30.98;;;17.88;;
4636;SDS011;2331;48.806;9.140;2022-12-10T11:56:58;26.98;;;16.40;;
4636;SDS011;2331;48.806;9.140;2022-12-10T11:59:34;32.35;;;17.23;;
4636;SDS011;2331;48.806;9.140;2022-12-10T12:02:16;33.35;;;19.30;;
4636;SDS011;2331;48.806;9.140;2022-12-10T12:05:06;29.80;;;18.10;;
4636;SDS011;2331;48.806;9.140;2022-12-10T12:07:47;31.15;;;18.48;;
4636;SDS011;2331;48.806;9.140;2022-12-10T12:10:23;27.35;;;16.75;;
4636;SDS011;2331;48.806;9.140;2022-12-10T12:13:21;28.45;;;17.55;;
4636;SDS011;2331;48.806;9.140;2022-12-10T12:15:52;33.35;;;17.83;;
4636;SDS011;2331;48.806;9.140;2022-12-10T12:18:25;30.90;;;18.50;;
4636;SDS011;2331;48.806;9.140;2022-12-10T12:20:58;34.58;;;19.42;;
4636;SDS011;2331;48.806;9.140;2022-12-10T12:23:31;29.95;;;18.08;;
4636;SDS011;2331;48.806;9.140;2022-12-10T12:26:04;31.92;;;18.13;;
4636;SDS011;2331;48.806;9.140;2022-12-10T12:28:37;29.60;;;17.75;;
4636;SDS011;2331;48.806;9.140;2022-12-10T12:31:08;29.73;;;17.38;;
4636;SDS011;2331;48.806;9.140;2022-12-10T12:33:39;31.13;;;17.38;;
4636;SDS011;2331;48.806;9.140;2022-12-10T12:36:10;29.15;;;16.42;;
4636;SDS011;2331;48.806;9.140;2022-12-10T12:38:43;34.72;;;19.38;;
4636;SDS011;2331;48.806;9.140;2022-12-10T12:41:21;28.38;;;17.80;;
4636;SDS011;2331;48.806;9.140;2022-12-10T12:43:58;32.28;;;17.85;;
4636;SDS011;2331;48.806;9.140;2022-12-10T12:46:29;28.23;;;17.90;;
4636;SDS011;2331;48.806;9.140;2022-12-10T12:49:02;31.70;;;17.92;;
4636;SDS011;2331;48.806;9.140;2022-12-10T12:51:36;31.75;;;18.00;;
4636;SDS011;2331;48.806;9.140;2022-12-10T12:54:08;30.75;;;18.58;;
4636;SDS011;2331;48.806;9.140;2022-12-10T12:56:41;31.25;;;18.35;;
4636;SDS011;2331;48.806;9.140;2022-12-10T12:59:22;33.17;;;19.15;;
4636;SDS011;2331;48.806;9.140;2022-12-10T13:01:58;32.30;;;18.05;;
4636;SDS011;2331;48.806;9.140;2022-12-10T13:04:33;31.85;;;19.15;;
4636;SDS011;2331;48.806;9.140;2022-12-10T13:10:17;34.80;;;18.48;;
4636;SDS011;2331;48.806;9.140;2022-12-10T13:12:49;33.05;;;17.92;;
4636;SDS011;2331;48.806;9.140;2022-12-10T13:15:32;32.65;;;18.73;;
4636;SDS011;2331;48.806;9.140;2022-12-10T13:18:03;36.75;;;19.60;;
4636;SDS011;2331;48.806;9.140;2022-12-10T13:20:46;35.47;;;20.17;;
4636;SDS011;2331;48.806;9.140;2022-12-10T13:23:29;36.05;;;19.85;;
4636;SDS011;2331;48.806;9.140;2022-12-10T13:26:00;34.58;;;19.50;;
4636;SDS011;2331;48.806;9.140;2022-12-10T13:28:29;36.35;;;19.40;;
4636;SDS011;2331;48.806;9.140;2022-12-10T13:31:19;32.55;;;18.88;;
4636;SDS011;2331;48.806;9.140;2022-12-10T13:33:50;36.00;;;19.42;;
4636;SDS011;2331;48.806;9.140;2022-12-10T13:36:20;31.20;;;19.25;;
4636;SDS011;2331;48.806;9.140;2022-12-10T13:38:56;38.42;;;20.23;;
4636;SDS011;2331;48.806;9.140;2022-12-10T13:41:40;38.13;;;20.60;;
4636;SDS011;2331;48.806;9.140;2022-12-10T13:44:46;35.50;;;20.73;;
4636;SDS011;2331;48.806;9.140;2022-12-10T13:47:25;35.85;;;20.38;;
4636;SDS011;2331;48.806;9.140;2022-12-10T13:49:57;31.48;;;18.75;;
4636;SDS011;2331;48.806;9.140;2022-12-10T13:52:26;36.10;;;20.35;;
4636;SDS011;2331;48.806;9.140;2022-12-10T13:55:12;34.17;;;19.80;;
4636;SDS011;2331;48.806;9.140;2022-12-10T13:58:12;34.58;;;20.25;;
4636;SDS011;2331;48.806;9.140;2022-12-10T14:00:52;32.58;;;19.60;;
4636;SDS011;2331;48.806;9.140;2022-12-10T14:03:37;35.65;;;18.95;;
4636;SDS011;2331;48.806;9.140;2022-12-10T14:06:23;33.30;;;19.30;;
4636;SDS011;2331;48.806;9.140;2022-12-10T14:08:55;34.20;;;19.88;;
4636;SDS011;2331;48.806;9.140;2022-12-10T14:11:27;34.38;;;19.45;;
4636;SDS011;2331;48.806;9.140;2022-12-10T14:13:58;31.98;;;17.83;;
4636;SDS011;2331;48.806;9.140;2022-12-10T14:16:27;33.90;;;17.92;;
4636;SDS011;2331;48.806;9.140;2022-12-10T14:18:57;30.58;;;17.90;;
4636;SDS011;2331;48.806;9.140;2022-12-10T14:21:25;34.95;;;18.23;;
4636;SDS011;2331;48.806;9.140;2022-12-10T14:23:57;32.38;;;18.73;;
4636;SDS011;2331;48.806;9.140;2022-12-10T14:26:25;34.85;;;19.33;;
4636;SDS011;2331;48.806;9.140;2022-12-10T14:28:55;30.58;;;18.15;;
4636;SDS011;2331;48.806;9.140;2022-12-10T14:31:26;33.95;;;19.38;;
4636;SDS011;2331;48.806;9.140;2022-12-10T14:33:57;30.35;;;17.98;;
4636;SDS011;2331;48.806;9.140;2022-12-10T14:36:27;33.03;;;18.60;;
4636;SDS011;2331;48.806;9.140;2022-12-10T14:38:55;34.47;;;17.67;;
4636;SDS011;2331;48.806;9.140;2022-12-10T14:41:23;31.42;;;18.42;;
4636;SDS011;2331;48.806;9.140;2022-12-10T14:43:52;33.38;;;19.10;;
4636;SDS011;2331;48.806;9.140;2022-12-10T14:46:20;32.08;;;17.95;;
4636;SDS011;2331;48.806;9.140;2022-12-10T14:48:51;35.83;;;18.00;;
4636;SDS011;2331;48.806;9.140;2022-12-10T14:51:21;31.65;;;18.63;;
4636;SDS011;2331;48.806;9.140;2022-12-10T14:53:50;27.67;;;17.10;;
4636;SDS011;2331;48.806;9.140;2022-12-10T14:56:20;31.90;;;18.65;;
4636;SDS011;2331;48.806;9.140;2022-12-10T14:58:51;33.60;;;18.73;;
4636;SDS011;2331;48.806;9.140;2022-12-10T15:01:25;34.28;;;19.20;;
4636;SDS011;2331;48.806;9.140;2022-12-10T15:03:56;33.13;;;19.55;;
4636;SDS011;2331;48.806;9.140;2022-12-10T15:06:26;31.63;;;18.48;;
4636;SDS011;2331;48.806;9.140;2022-12-10T15:08:54;34.67;;;19.52;;
4636;SDS011;2331;48.806;9.140;2022-12-10T15:11:24;32.25;;;18.02;;
4636;SDS011;2331;48.806;9.140;2022-12-10T15:13:53;36.10;;;18.65;;